sensor_id;sensor_type;location;lat;lon;timestamp;P1;durP1;ratioP1;P2;durP2;ratioP2
62796;SDS011;48839;48.546;-4.178;2023-07-16T00:01:22;10.70;;;3.47;;
62796;SDS011;48839;48.546;-4.178;2023-07-16T00:03:48;11.32;;;3.95;;
62796;SDS011;48839;48.546;-4.178;2023-07-16T00:06:14;11.55;;;3.75;;
62796;SDS011;48839;48.546;-4.178;2023-07-16T00:08:40;13.75;;;4.00;;
62796;SDS011;48839;48.546;-4.178;2023-07-16T00:11:06;12.88;;;3.35;;
62796;SDS011;48839;48.546;-4.178;2023-07-16T00:13:32;15.55;;;3.97;;
62796;SDS011;48839;48.546;-4.178;2023-07-16T00:15:58;21.02;;;3.88;;
62796;SDS011;48839;48.546;-4.178;2023-07-16T00:18:24;15.00;;;3.30;;
62796;SDS011;48839;48.546;-4.178;2023-07-16T00:20:50;16.00;;;3.58;;
62796;SDS011;48839;48.546;-4.178;2023-07-16T00:23:16;14.23;;;3.35;;
62796;SDS011;48839;48.546;-4.178;2023-07-16T00:25:42;27.38;;;5.55;;
62796;SDS011;48839;48.546;-4.178;2023-07-16T00:28:08;9.27;;;3.10;;
62796;SDS011;48839;48.546;-4.178;2023-07-16T00:30:36;7.93;;;2.65;;
62796;SDS011;48839;48.546;-4.178;2023-07-16T00:33:02;10.02;;;3.10;;
62796;SDS011;48839;48.546;-4.178;2023-07-16T00:35:28;13.20;;;3.08;;
62796;SDS011;48839;48.546;-4.178;2023-07-16T00:37:54;11.02;;;3.40;;
62796;SDS011;48839;48.546;-4.178;2023-07-16T00:40:20;9.65;;;2.65;;
62796;SDS011;48839;48.546;-4.178;2023-07-16T00:42:46;15.88;;;2.88;;
62796;SDS011;48839;48.546;-4.178;2023-07-16T00:45:12;10.93;;;3.25;;
62796;SDS011;48839;48.546;-4.178;2023-07-16T00:47:40;7.88;;;2.78;;
62796;SDS011;48839;48.546;-4.178;2023-07-16T00:50:06;7.72;;;2.17;;
62796;SDS011;48839;48.546;-4.178;2023-07-16T00:52:33;11.20;;;2.60;;
62796;SDS011;48839;48.546;-4.178;2023-07-16T00:54:59;5.43;;;3.00;;
62796;SDS011;48839;48.546;-4.178;2023-07-16T00:57:25;10.70;;;2.08;;
62796;SDS011;48839;48.546;-4.178;2023-07-16T00:59:51;7.85;;;2.15;;
62796;SDS011;48839;48.546;-4.178;2023-07-16T01:02:17;12.45;;;2.17;;
62796;SDS011;48839;48.546;-4.178;2023-07-16T01:04:43;14.98;;;2.70;;
62796;SDS011;48839;48.546;-4.178;2023-07-16T01:07:11;8.52;;;2.42;;
62796;SDS011;48839;48.546;-4.178;2023-07-16T01:09:38;13.07;;;2.30;;
62796;SDS011;48839;48.546;-4.178;2023-07-16T01:12:05;10.48;;;2.30;;
62796;SDS011;48839;48.546;-4.178;2023-07-16T01:14:31;9.43;;;2.38;;
62796;SDS011;48839;48.546;-4.178;2023-07-16T01:16:58;11.02;;;2.65;;
62796;SDS011;48839;48.546;-4.178;2023-07-16T01:19:24;10.02;;;2.10;;
62796;SDS011;48839;48.546;-4.178;2023-07-16T01:26:51;5.75;;;2.55;;
62796;SDS011;48839;48.546;-4.178;2023-07-16T01:31:51;5.88;;;1.70;;
62796;SDS011;48839;48.546;-4.178;2023-07-16T01:34:17;4.97;;;2.00;;
62796;SDS011;48839;48.546;-4.178;2023-07-16T01:36:44;6.20;;;1.90;;
62796;SDS011;48839;48.546;-4.178;2023-07-16T01:39:10;4.63;;;1.60;;
62796;SDS011;48839;48.546;-4.178;2023-07-16T01:41:36;7.78;;;2.10;;
62796;SDS011;48839;48.546;-4.178;2023-07-16T01:44:03;4.85;;;1.63;;
62796;SDS011;48839;48.546;-4.178;2023-07-16T01:46:29;4.32;;;1.48;;
62796;SDS011;48839;48.546;-4.178;2023-07-16T01:48:55;6.07;;;2.40;;
62796;SDS011;48839;48.546;-4.178;2023-07-16T01:51:21;4.75;;;2.10;;
62796;SDS011;48839;48.546;-4.178;2023-07-16T01:53:47;4.78;;;1.33;;
62796;SDS011;48839;48.546;-4.178;2023-07-16T01:56:13;4.10;;;1.75;;
62796;SDS011;48839;48.546;-4.178;2023-07-16T01:58:39;6.70;;;1.65;;
62796;SDS011;48839;48.546;-4.178;2023-07-16T02:01:05;5.18;;;1.40;;
62796;SDS011;48839;48.546;-4.178;2023-07-16T02:03:31;4.45;;;1.40;;
62796;SDS011;48839;48.546;-4.178;2023-07-16T02:05:57;8.05;;;2.00;;
62796;SDS011;48839;48.546;-4.178;2023-07-16T02:08:23;3.35;;;1.50;;
62796;SDS011;48839;48.546;-4.178;2023-07-16T02:10:49;4.82;;;1.58;;
62796;SDS011;48839;48.546;-4.178;2023-07-16T02:13:15;5.80;;;2.20;;
62796;SDS011;48839;48.546;-4.178;2023-07-16T02:15:42;5.40;;;1.92;;
62796;SDS011;48839;48.546;-4.178;2023-07-16T02:18:08;3.55;;;1.27;;
62796;SDS011;48839;48.546;-4.178;2023-07-16T02:20:34;6.07;;;1.90;;
62796;SDS011;48839;48.546;-4.178;2023-07-16T02:23:00;8.70;;;2.10;;
62796;SDS011;48839;48.546;-4.178;2023-07-16T02:25:26;7.18;;;2.38;;
62796;SDS011;48839;48.546;-4.178;2023-07-16T02:27:52;6.78;;;1.83;;
62796;SDS011;48839;48.546;-4.178;2023-07-16T02:30:18;8.80;;;2.08;;
62796;SDS011;48839;48.546;-4.178;2023-07-16T02:32:44;4.28;;;1.70;;
62796;SDS011;48839;48.546;-4.178;2023-07-16T02:35:10;4.95;;;1.83;;
62796;SDS011;48839;48.546;-4.178;2023-07-16T02:37:36;7.55;;;2.63;;
62796;SDS011;48839;48.546;-4.178;2023-07-16T02:40:02;8.55;;;2.50;;
62796;SDS011;48839;48.546;-4.178;2023-07-16T02:42:29;7.25;;;2.28;;
62796;SDS011;48839;48.546;-4.178;2023-07-16T02:44:55;4.85;;;2.15;;
62796;SDS011;48839;48.546;-4.178;2023-07-16T02:47:21;9.05;;;2.13;;
62796;SDS011;48839;48.546;-4.178;2023-07-16T02:49:50;11.05;;;2.08;;
62796;SDS011;48839;48.546;-4.178;2023-07-16T02:52:16;6.03;;;2.50;;
62796;SDS011;48839;48.546;-4.178;2023-07-16T02:54:42;10.27;;;2.65;;
62796;SDS011;48839;48.546;-4.178;2023-07-16T02:57:08;8.45;;;2.22;;
62796;SDS011;48839;48.546;-4.178;2023-07-16T02:59:34;8.70;;;2.15;;
62796;SDS011;48839;48.546;-4.178;2023-07-16T03:02:00;8.25;;;3.28;;
62796;SDS011;48839;48.546;-4.178;2023-07-16T03:04:26;7.55;;;2.47;;
62796;SDS011;48839;48.546;-4.178;2023-07-16T03:06:52;8.90;;;2.85;;
62796;SDS011;48839;48.546;-4.178;2023-07-16T03:09:18;10.70;;;2.40;;
62796;SDS011;48839;48.546;-4.178;2023-07-16T03:11:44;10.52;;;2.75;;
62796;SDS011;48839;48.546;-4.178;2023-07-16T03:14:10;6.95;;;2.67;;
62796;SDS011;48839;48.546;-4.178;2023-07-16T03:16:36;9.60;;;2.65;;
62796;SDS011;48839;48.546;-4.178;2023-07-16T03:19:02;16.90;;;3.53;;
62796;SDS011;48839;48.546;-4.178;2023-07-16T03:21:28;12.45;;;3.58;;
62796;SDS011;48839;48.546;-4.178;2023-07-16T03:23:54;13.60;;;3.15;;
62796;SDS011;48839;48.546;-4.178;2023-07-16T03:26:20;10.18;;;2.55;;
62796;SDS011;48839;48.546;-4.178;2023-07-16T03:28:46;10.93;;;3.55;;
62796;SDS011;48839;48.546;-4.178;2023-07-16T03:31:12;14.02;;;2.80;;
62796;SDS011;48839;48.546;-4.178;2023-07-16T03:33:38;9.93;;;3.95;;
62796;SDS011;48839;48.546;-4.178;2023-07-16T03:36:04;7.45;;;2.25;;
62796;SDS011;48839;48.546;-4.178;2023-07-16T03:38:30;8.50;;;2.88;;
62796;SDS011;48839;48.546;-4.178;2023-07-16T03:40:56;18.73;;;2.90;;
62796;SDS011;48839;48.546;-4.178;2023-07-16T03:43:22;13.23;;;2.92;;
62796;SDS011;48839;48.546;-4.178;2023-07-16T03:45:48;13.73;;;3.10;;
62796;SDS011;48839;48.546;-4.178;2023-07-16T03:48:15;12.07;;;3.25;;
62796;SDS011;48839;48.546;-4.178;2023-07-16T03:50:41;10.27;;;2.60;;
62796;SDS011;48839;48.546;-4.178;2023-07-16T03:53:07;14.65;;;3.72;;
62796;SDS011;48839;48.546;-4.178;2023-07-16T03:55:33;11.82;;;3.20;;
62796;SDS011;48839;48.546;-4.178;2023-07-16T03:57:59;9.10;;;3.00;;
62796;SDS011;48839;48.546;-4.178;2023-07-16T04:00:25;15.30;;;3.65;;
62796;SDS011;48839;48.546;-4.178;2023-07-16T04:02:51;9.40;;;2.53;;
62796;SDS011;48839;48.546;-4.178;2023-07-16T04:05:17;9.00;;;3.10;;
62796;SDS011;48839;48.546;-4.178;2023-07-16T04:07:43;11.45;;;3.72;;
62796;SDS011;48839;48.546;-4.178;2023-07-16T04:10:09;16.73;;;3.22;;
62796;SDS011;48839;48.546;-4.178;2023-07-16T04:12:35;13.75;;;3.70;;
62796;SDS011;48839;48.546;-4.178;2023-07-16T04:15:06;28.05;;;4.35;;
62796;SDS011;48839;48.546;-4.178;2023-07-16T04:17:32;15.68;;;3.80;;
62796;SDS011;48839;48.546;-4.178;2023-07-16T04:19:58;12.63;;;3.45;;
62796;SDS011;48839;48.546;-4.178;2023-07-16T04:22:24;8.15;;;3.28;;
62796;SDS011;48839;48.546;-4.178;2023-07-16T04:24:50;11.38;;;3.30;;
62796;SDS011;48839;48.546;-4.178;2023-07-16T04:27:16;13.57;;;3.70;;
62796;SDS011;48839;48.546;-4.178;2023-07-16T04:29:42;6.22;;;3.10;;
62796;SDS011;48839;48.546;-4.178;2023-07-16T04:32:08;10.13;;;3.83;;
62796;SDS011;48839;48.546;-4.178;2023-07-16T04:34:34;6.68;;;3.08;;
62796;SDS011;48839;48.546;-4.178;2023-07-16T04:37:00;16.75;;;3.95;;
62796;SDS011;48839;48.546;-4.178;2023-07-16T04:39:26;19.55;;;3.88;;
62796;SDS011;48839;48.546;-4.178;2023-07-16T04:41:52;8.93;;;3.17;;
62796;SDS011;48839;48.546;-4.178;2023-07-16T04:44:18;13.25;;;4.20;;
62796;SDS011;48839;48.546;-4.178;2023-07-16T04:46:44;10.55;;;3.28;;
62796;SDS011;48839;48.546;-4.178;2023-07-16T04:49:10;17.75;;;3.97;;
62796;SDS011;48839;48.546;-4.178;2023-07-16T04:51:36;18.83;;;3.67;;
62796;SDS011;48839;48.546;-4.178;2023-07-16T04:54:02;12.27;;;3.55;;
62796;SDS011;48839;48.546;-4.178;2023-07-16T04:56:28;11.88;;;3.28;;
62796;SDS011;48839;48.546;-4.178;2023-07-16T04:58:54;13.35;;;3.15;;
62796;SDS011;48839;48.546;-4.178;2023-07-16T05:01:20;15.95;;;3.63;;
62796;SDS011;48839;48.546;-4.178;2023-07-16T05:03:46;10.93;;;2.70;;
62796;SDS011;48839;48.546;-4.178;2023-07-16T05:06:12;8.55;;;3.03;;
62796;SDS011;48839;48.546;-4.178;2023-07-16T05:08:38;12.35;;;2.97;;
62796;SDS011;48839;48.546;-4.178;2023-07-16T05:11:04;14.02;;;3.75;;
62796;SDS011;48839;48.546;-4.178;2023-07-16T05:13:30;11.85;;;2.97;;
62796;SDS011;48839;48.546;-4.178;2023-07-16T05:15:56;10.85;;;3.05;;
62796;SDS011;48839;48.546;-4.178;2023-07-16T05:18:22;13.23;;;2.75;;
62796;SDS011;48839;48.546;-4.178;2023-07-16T05:20:48;18.10;;;2.95;;
62796;SDS011;48839;48.546;-4.178;2023-07-16T05:23:14;10.68;;;2.60;;
62796;SDS011;48839;48.546;-4.178;2023-07-16T05:25:47;8.50;;;2.53;;
62796;SDS011;48839;48.546;-4.178;2023-07-16T05:28:13;8.25;;;2.42;;
62796;SDS011;48839;48.546;-4.178;2023-07-16T05:30:40;6.25;;;1.80;;
62796;SDS011;48839;48.546;-4.178;2023-07-16T05:33:06;5.65;;;2.33;;
62796;SDS011;48839;48.546;-4.178;2023-07-16T05:35:32;6.05;;;2.25;;
62796;SDS011;48839;48.546;-4.178;2023-07-16T05:37:58;8.55;;;2.13;;
62796;SDS011;48839;48.546;-4.178;2023-07-16T05:40:24;3.40;;;1.60;;
62796;SDS011;48839;48.546;-4.178;2023-07-16T05:42:50;6.82;;;1.83;;
62796;SDS011;48839;48.546;-4.178;2023-07-16T05:45:16;5.65;;;1.45;;
62796;SDS011;48839;48.546;-4.178;2023-07-16T05:47:42;3.65;;;1.70;;
62796;SDS011;48839;48.546;-4.178;2023-07-16T05:50:08;4.72;;;1.40;;
62796;SDS011;48839;48.546;-4.178;2023-07-16T05:52:34;6.00;;;1.75;;
62796;SDS011;48839;48.546;-4.178;2023-07-16T05:55:00;3.10;;;1.40;;
62796;SDS011;48839;48.546;-4.178;2023-07-16T05:57:26;5.45;;;2.05;;
62796;SDS011;48839;48.546;-4.178;2023-07-16T05:59:52;3.58;;;1.52;;
62796;SDS011;48839;48.546;-4.178;2023-07-16T06:02:18;4.53;;;1.45;;
62796;SDS011;48839;48.546;-4.178;2023-07-16T06:04:44;6.35;;;2.10;;
62796;SDS011;48839;48.546;-4.178;2023-07-16T06:07:10;8.68;;;1.92;;
62796;SDS011;48839;48.546;-4.178;2023-07-16T06:09:36;9.63;;;1.85;;
62796;SDS011;48839;48.546;-4.178;2023-07-16T06:12:02;4.32;;;1.20;;
62796;SDS011;48839;48.546;-4.178;2023-07-16T06:14:28;3.38;;;1.20;;
62796;SDS011;48839;48.546;-4.178;2023-07-16T06:16:54;3.08;;;1.35;;
62796;SDS011;48839;48.546;-4.178;2023-07-16T06:19:20;2.55;;;1.40;;
62796;SDS011;48839;48.546;-4.178;2023-07-16T06:21:46;5.55;;;1.48;;
62796;SDS011;48839;48.546;-4.178;2023-07-16T06:24:12;6.53;;;1.92;;
62796;SDS011;48839;48.546;-4.178;2023-07-16T06:26:38;6.88;;;1.98;;
62796;SDS011;48839;48.546;-4.178;2023-07-16T06:29:04;5.35;;;1.73;;
62796;SDS011;48839;48.546;-4.178;2023-07-16T06:31:30;5.40;;;2.13;;
62796;SDS011;48839;48.546;-4.178;2023-07-16T06:33:56;6.72;;;1.75;;
62796;SDS011;48839;48.546;-4.178;2023-07-16T06:36:22;9.10;;;1.63;;
62796;SDS011;48839;48.546;-4.178;2023-07-16T06:38:48;5.45;;;1.98;;
62796;SDS011;48839;48.546;-4.178;2023-07-16T06:41:14;8.02;;;1.90;;
62796;SDS011;48839;48.546;-4.178;2023-07-16T06:43:40;6.70;;;2.00;;
62796;SDS011;48839;48.546;-4.178;2023-07-16T06:46:06;3.25;;;1.27;;
62796;SDS011;48839;48.546;-4.178;2023-07-16T06:48:32;4.82;;;1.58;;
62796;SDS011;48839;48.546;-4.178;2023-07-16T06:50:59;5.15;;;2.00;;
62796;SDS011;48839;48.546;-4.178;2023-07-16T06:53:25;5.95;;;2.28;;
62796;SDS011;48839;48.546;-4.178;2023-07-16T06:55:51;8.32;;;1.52;;
62796;SDS011;48839;48.546;-4.178;2023-07-16T06:58:17;7.55;;;1.75;;
62796;SDS011;48839;48.546;-4.178;2023-07-16T07:00:43;6.10;;;1.88;;
62796;SDS011;48839;48.546;-4.178;2023-07-16T07:03:09;9.68;;;2.10;;
62796;SDS011;48839;48.546;-4.178;2023-07-16T07:05:35;9.60;;;3.00;;
62796;SDS011;48839;48.546;-4.178;2023-07-16T07:08:02;6.50;;;2.22;;
62796;SDS011;48839;48.546;-4.178;2023-07-16T07:10:28;9.20;;;1.88;;
62796;SDS011;48839;48.546;-4.178;2023-07-16T07:12:54;4.10;;;1.50;;
62796;SDS011;48839;48.546;-4.178;2023-07-16T07:15:20;6.60;;;1.73;;
62796;SDS011;48839;48.546;-4.178;2023-07-16T07:17:46;7.88;;;2.45;;
62796;SDS011;48839;48.546;-4.178;2023-07-16T07:20:13;4.03;;;1.40;;
62796;SDS011;48839;48.546;-4.178;2023-07-16T07:22:39;5.15;;;1.80;;
62796;SDS011;48839;48.546;-4.178;2023-07-16T07:25:05;6.75;;;3.17;;
62796;SDS011;48839;48.546;-4.178;2023-07-16T07:27:32;5.47;;;1.80;;
62796;SDS011;48839;48.546;-4.178;2023-07-16T07:29:58;5.53;;;1.85;;
62796;SDS011;48839;48.546;-4.178;2023-07-16T07:32:24;5.25;;;1.95;;
62796;SDS011;48839;48.546;-4.178;2023-07-16T07:34:50;6.03;;;2.00;;
62796;SDS011;48839;48.546;-4.178;2023-07-16T07:37:16;10.20;;;1.88;;
62796;SDS011;48839;48.546;-4.178;2023-07-16T07:39:42;5.90;;;1.83;;
62796;SDS011;48839;48.546;-4.178;2023-07-16T07:42:12;6.60;;;1.75;;
62796;SDS011;48839;48.546;-4.178;2023-07-16T07:44:38;11.35;;;1.98;;
62796;SDS011;48839;48.546;-4.178;2023-07-16T07:47:04;5.80;;;1.92;;
62796;SDS011;48839;48.546;-4.178;2023-07-16T07:49:30;10.45;;;2.05;;
62796;SDS011;48839;48.546;-4.178;2023-07-16T07:51:56;10.77;;;1.73;;
62796;SDS011;48839;48.546;-4.178;2023-07-16T07:54:22;4.57;;;1.40;;
62796;SDS011;48839;48.546;-4.178;2023-07-16T07:56:48;6.30;;;1.85;;
62796;SDS011;48839;48.546;-4.178;2023-07-16T07:59:14;6.30;;;1.98;;
62796;SDS011;48839;48.546;-4.178;2023-07-16T08:01:40;6.68;;;1.85;;
62796;SDS011;48839;48.546;-4.178;2023-07-16T08:04:06;3.00;;;1.75;;
62796;SDS011;48839;48.546;-4.178;2023-07-16T08:06:32;2.78;;;1.50;;
62796;SDS011;48839;48.546;-4.178;2023-07-16T08:08:58;4.65;;;1.48;;
62796;SDS011;48839;48.546;-4.178;2023-07-16T08:11:24;6.55;;;3.15;;
62796;SDS011;48839;48.546;-4.178;2023-07-16T08:13:50;5.30;;;1.50;;
62796;SDS011;48839;48.546;-4.178;2023-07-16T08:16:16;5.45;;;1.73;;
62796;SDS011;48839;48.546;-4.178;2023-07-16T08:18:42;7.97;;;1.70;;
62796;SDS011;48839;48.546;-4.178;2023-07-16T08:21:08;9.00;;;2.15;;
62796;SDS011;48839;48.546;-4.178;2023-07-16T08:23:34;7.45;;;1.80;;
62796;SDS011;48839;48.546;-4.178;2023-07-16T08:26:00;9.98;;;2.47;;
62796;SDS011;48839;48.546;-4.178;2023-07-16T08:28:26;4.32;;;1.63;;
62796;SDS011;48839;48.546;-4.178;2023-07-16T08:30:52;6.10;;;1.80;;
62796;SDS011;48839;48.546;-4.178;2023-07-16T08:33:19;4.93;;;2.53;;
62796;SDS011;48839;48.546;-4.178;2023-07-16T08:35:45;8.15;;;1.98;;
62796;SDS011;48839;48.546;-4.178;2023-07-16T08:38:11;7.75;;;2.10;;
62796;SDS011;48839;48.546;-4.178;2023-07-16T08:40:37;4.55;;;2.00;;
62796;SDS011;48839;48.546;-4.178;2023-07-16T08:43:04;8.38;;;2.75;;
62796;SDS011;48839;48.546;-4.178;2023-07-16T08:45:32;7.97;;;2.28;;
62796;SDS011;48839;48.546;-4.178;2023-07-16T08:48:03;4.07;;;1.95;;
62796;SDS011;48839;48.546;-4.178;2023-07-16T08:50:29;7.85;;;2.20;;
62796;SDS011;48839;48.546;-4.178;2023-07-16T08:52:55;5.35;;;1.60;;
62796;SDS011;48839;48.546;-4.178;2023-07-16T08:55:21;3.53;;;1.83;;
62796;SDS011;48839;48.546;-4.178;2023-07-16T08:57:47;7.88;;;2.15;;
62796;SDS011;48839;48.546;-4.178;2023-07-16T09:00:14;3.78;;;1.67;;
62796;SDS011;48839;48.546;-4.178;2023-07-16T09:02:41;6.93;;;2.00;;
62796;SDS011;48839;48.546;-4.178;2023-07-16T09:05:08;5.47;;;1.80;;
62796;SDS011;48839;48.546;-4.178;2023-07-16T09:07:35;5.65;;;2.28;;
62796;SDS011;48839;48.546;-4.178;2023-07-16T09:10:02;2.58;;;1.27;;
62796;SDS011;48839;48.546;-4.178;2023-07-16T09:12:29;5.45;;;2.00;;
62796;SDS011;48839;48.546;-4.178;2023-07-16T09:14:55;6.35;;;1.90;;
62796;SDS011;48839;48.546;-4.178;2023-07-16T09:17:22;4.65;;;1.88;;
62796;SDS011;48839;48.546;-4.178;2023-07-16T09:19:49;10.05;;;2.25;;
62796;SDS011;48839;48.546;-4.178;2023-07-16T09:22:16;5.50;;;1.80;;
62796;SDS011;48839;48.546;-4.178;2023-07-16T09:24:44;8.35;;;1.60;;
62796;SDS011;48839;48.546;-4.178;2023-07-16T09:27:11;3.20;;;1.67;;
62796;SDS011;48839;48.546;-4.178;2023-07-16T09:29:38;8.20;;;2.03;;
62796;SDS011;48839;48.546;-4.178;2023-07-16T09:32:04;9.95;;;1.80;;
62796;SDS011;48839;48.546;-4.178;2023-07-16T09:34:30;7.05;;;2.17;;
62796;SDS011;48839;48.546;-4.178;2023-07-16T09:36:57;6.25;;;1.98;;
62796;SDS011;48839;48.546;-4.178;2023-07-16T09:39:23;7.20;;;2.42;;
62796;SDS011;48839;48.546;-4.178;2023-07-16T09:41:50;11.93;;;2.38;;
62796;SDS011;48839;48.546;-4.178;2023-07-16T09:44:17;3.63;;;1.90;;
62796;SDS011;48839;48.546;-4.178;2023-07-16T09:46:43;4.93;;;2.28;;
62796;SDS011;48839;48.546;-4.178;2023-07-16T09:49:10;8.10;;;2.55;;
62796;SDS011;48839;48.546;-4.178;2023-07-16T09:51:37;6.70;;;2.85;;
62796;SDS011;48839;48.546;-4.178;2023-07-16T09:54:03;5.05;;;2.22;;
62796;SDS011;48839;48.546;-4.178;2023-07-16T09:56:32;6.75;;;2.95;;
62796;SDS011;48839;48.546;-4.178;2023-07-16T09:58:59;8.98;;;2.28;;
62796;SDS011;48839;48.546;-4.178;2023-07-16T10:01:26;6.63;;;2.60;;
62796;SDS011;48839;48.546;-4.178;2023-07-16T10:03:52;9.32;;;4.43;;
62796;SDS011;48839;48.546;-4.178;2023-07-16T10:06:18;7.95;;;2.92;;
62796;SDS011;48839;48.546;-4.178;2023-07-16T10:08:50;8.20;;;2.70;;
62796;SDS011;48839;48.546;-4.178;2023-07-16T10:11:17;8.90;;;3.00;;
62796;SDS011;48839;48.546;-4.178;2023-07-16T10:13:48;9.00;;;3.10;;
62796;SDS011;48839;48.546;-4.178;2023-07-16T10:16:20;5.80;;;2.65;;
62796;SDS011;48839;48.546;-4.178;2023-07-16T10:18:52;9.20;;;2.80;;
62796;SDS011;48839;48.546;-4.178;2023-07-16T10:21:25;5.85;;;2.53;;
62796;SDS011;48839;48.546;-4.178;2023-07-16T10:23:57;5.93;;;3.38;;
62796;SDS011;48839;48.546;-4.178;2023-07-16T10:26:27;8.68;;;3.15;;
62796;SDS011;48839;48.546;-4.178;2023-07-16T10:28:54;7.68;;;3.00;;
62796;SDS011;48839;48.546;-4.178;2023-07-16T10:31:20;8.48;;;3.35;;
62796;SDS011;48839;48.546;-4.178;2023-07-16T10:33:59;7.88;;;3.83;;
62796;SDS011;48839;48.546;-4.178;2023-07-16T10:36:26;7.20;;;2.63;;
62796;SDS011;48839;48.546;-4.178;2023-07-16T10:38:52;11.95;;;3.33;;
62796;SDS011;48839;48.546;-4.178;2023-07-16T10:41:18;5.82;;;2.88;;
62796;SDS011;48839;48.546;-4.178;2023-07-16T10:43:44;10.30;;;2.97;;
62796;SDS011;48839;48.546;-4.178;2023-07-16T10:46:11;6.97;;;2.60;;
62796;SDS011;48839;48.546;-4.178;2023-07-16T10:48:37;6.63;;;2.83;;
62796;SDS011;48839;48.546;-4.178;2023-07-16T10:51:03;6.68;;;2.75;;
62796;SDS011;48839;48.546;-4.178;2023-07-16T10:53:29;12.50;;;2.97;;
62796;SDS011;48839;48.546;-4.178;2023-07-16T10:55:58;8.57;;;3.53;;
62796;SDS011;48839;48.546;-4.178;2023-07-16T10:58:26;13.52;;;3.28;;
62796;SDS011;48839;48.546;-4.178;2023-07-16T11:00:52;6.10;;;2.97;;
62796;SDS011;48839;48.546;-4.178;2023-07-16T11:03:18;12.48;;;3.45;;
62796;SDS011;48839;48.546;-4.178;2023-07-16T11:05:47;6.55;;;3.15;;
62796;SDS011;48839;48.546;-4.178;2023-07-16T11:08:22;7.57;;;2.90;;
62796;SDS011;48839;48.546;-4.178;2023-07-16T11:10:55;10.00;;;3.45;;
62796;SDS011;48839;48.546;-4.178;2023-07-16T11:13:25;11.68;;;4.05;;
62796;SDS011;48839;48.546;-4.178;2023-07-16T11:15:51;10.38;;;3.80;;
62796;SDS011;48839;48.546;-4.178;2023-07-16T11:18:16;12.07;;;3.85;;
62796;SDS011;48839;48.546;-4.178;2023-07-16T11:20:43;9.65;;;3.55;;
62796;SDS011;48839;48.546;-4.178;2023-07-16T11:23:10;8.13;;;3.95;;
62796;SDS011;48839;48.546;-4.178;2023-07-16T11:25:36;6.72;;;3.97;;
62796;SDS011;48839;48.546;-4.178;2023-07-16T11:28:02;12.30;;;3.78;;
62796;SDS011;48839;48.546;-4.178;2023-07-16T11:30:28;7.38;;;3.58;;
62796;SDS011;48839;48.546;-4.178;2023-07-16T11:32:54;9.88;;;3.90;;
62796;SDS011;48839;48.546;-4.178;2023-07-16T11:35:23;14.02;;;4.95;;
62796;SDS011;48839;48.546;-4.178;2023-07-16T11:37:49;10.95;;;4.57;;
62796;SDS011;48839;48.546;-4.178;2023-07-16T11:40:16;9.18;;;4.40;;
62796;SDS011;48839;48.546;-4.178;2023-07-16T11:42:43;12.85;;;4.65;;
62796;SDS011;48839;48.546;-4.178;2023-07-16T11:45:22;14.00;;;5.18;;
62796;SDS011;48839;48.546;-4.178;2023-07-16T11:47:48;11.30;;;4.82;;
62796;SDS011;48839;48.546;-4.178;2023-07-16T11:50:14;12.30;;;5.82;;
62796;SDS011;48839;48.546;-4.178;2023-07-16T11:52:41;13.60;;;5.07;;
62796;SDS011;48839;48.546;-4.178;2023-07-16T11:55:07;11.80;;;6.05;;
62796;SDS011;48839;48.546;-4.178;2023-07-16T11:57:34;11.93;;;6.20;;
62796;SDS011;48839;48.546;-4.178;2023-07-16T12:00:00;16.92;;;5.93;;
62796;SDS011;48839;48.546;-4.178;2023-07-16T12:02:27;14.45;;;6.07;;
62796;SDS011;48839;48.546;-4.178;2023-07-16T12:04:53;10.98;;;5.95;;
62796;SDS011;48839;48.546;-4.178;2023-07-16T12:07:30;18.33;;;6.20;;
62796;SDS011;48839;48.546;-4.178;2023-07-16T12:09:56;14.48;;;5.68;;
62796;SDS011;48839;48.546;-4.178;2023-07-16T12:12:22;11.52;;;6.30;;
62796;SDS011;48839;48.546;-4.178;2023-07-16T12:14:48;13.65;;;7.22;;
62796;SDS011;48839;48.546;-4.178;2023-07-16T12:17:14;16.08;;;6.55;;
62796;SDS011;48839;48.546;-4.178;2023-07-16T12:19:40;14.00;;;5.85;;
62796;SDS011;48839;48.546;-4.178;2023-07-16T12:22:06;14.25;;;6.82;;
62796;SDS011;48839;48.546;-4.178;2023-07-16T12:24:32;14.35;;;6.30;;
62796;SDS011;48839;48.546;-4.178;2023-07-16T12:26:58;14.60;;;6.85;;
62796;SDS011;48839;48.546;-4.178;2023-07-16T12:29:24;14.50;;;6.38;;
62796;SDS011;48839;48.546;-4.178;2023-07-16T12:31:50;14.00;;;5.75;;
62796;SDS011;48839;48.546;-4.178;2023-07-16T12:34:16;15.60;;;7.53;;
62796;SDS011;48839;48.546;-4.178;2023-07-16T12:36:42;15.27;;;6.93;;
62796;SDS011;48839;48.546;-4.178;2023-07-16T12:39:08;15.45;;;5.85;;
62796;SDS011;48839;48.546;-4.178;2023-07-16T12:41:34;12.23;;;5.55;;
62796;SDS011;48839;48.546;-4.178;2023-07-16T12:44:00;14.05;;;6.80;;
62796;SDS011;48839;48.546;-4.178;2023-07-16T12:46:26;11.93;;;6.13;;
62796;SDS011;48839;48.546;-4.178;2023-07-16T12:48:52;11.50;;;6.40;;
62796;SDS011;48839;48.546;-4.178;2023-07-16T12:51:18;19.35;;;6.45;;
62796;SDS011;48839;48.546;-4.178;2023-07-16T12:53:44;15.88;;;6.10;;
62796;SDS011;48839;48.546;-4.178;2023-07-16T12:56:11;13.38;;;5.90;;
62796;SDS011;48839;48.546;-4.178;2023-07-16T12:58:37;13.32;;;6.00;;
62796;SDS011;48839;48.546;-4.178;2023-07-16T13:01:03;13.65;;;6.07;;
62796;SDS011;48839;48.546;-4.178;2023-07-16T13:03:29;13.57;;;6.75;;
62796;SDS011;48839;48.546;-4.178;2023-07-16T13:05:55;12.98;;;6.85;;
62796;SDS011;48839;48.546;-4.178;2023-07-16T13:08:21;12.02;;;6.13;;
62796;SDS011;48839;48.546;-4.178;2023-07-16T13:10:47;12.85;;;6.85;;
62796;SDS011;48839;48.546;-4.178;2023-07-16T13:13:13;12.18;;;6.20;;
62796;SDS011;48839;48.546;-4.178;2023-07-16T13:15:39;15.18;;;5.95;;
62796;SDS011;48839;48.546;-4.178;2023-07-16T13:18:05;13.57;;;5.93;;
62796;SDS011;48839;48.546;-4.178;2023-07-16T13:20:31;12.52;;;6.13;;
62796;SDS011;48839;48.546;-4.178;2023-07-16T13:22:57;11.48;;;5.63;;
62796;SDS011;48839;48.546;-4.178;2023-07-16T13:25:23;11.85;;;6.43;;
62796;SDS011;48839;48.546;-4.178;2023-07-16T13:27:49;10.68;;;6.22;;
62796;SDS011;48839;48.546;-4.178;2023-07-16T13:30:15;13.23;;;5.60;;
62796;SDS011;48839;48.546;-4.178;2023-07-16T13:32:42;14.07;;;6.22;;
62796;SDS011;48839;48.546;-4.178;2023-07-16T13:35:08;11.75;;;6.07;;
62796;SDS011;48839;48.546;-4.178;2023-07-16T13:37:34;17.83;;;7.03;;
62796;SDS011;48839;48.546;-4.178;2023-07-16T13:40:00;11.48;;;6.32;;
62796;SDS011;48839;48.546;-4.178;2023-07-16T13:42:26;9.05;;;5.97;;
62796;SDS011;48839;48.546;-4.178;2023-07-16T13:44:52;15.52;;;6.95;;
62796;SDS011;48839;48.546;-4.178;2023-07-16T13:47:18;12.25;;;5.28;;
62796;SDS011;48839;48.546;-4.178;2023-07-16T13:49:46;14.10;;;6.63;;
62796;SDS011;48839;48.546;-4.178;2023-07-16T13:52:12;11.77;;;7.07;;
62796;SDS011;48839;48.546;-4.178;2023-07-16T13:54:38;11.98;;;6.13;;
62796;SDS011;48839;48.546;-4.178;2023-07-16T13:57:04;16.67;;;7.40;;
62796;SDS011;48839;48.546;-4.178;2023-07-16T13:59:30;11.80;;;6.10;;
62796;SDS011;48839;48.546;-4.178;2023-07-16T14:02:02;19.42;;;6.88;;
62796;SDS011;48839;48.546;-4.178;2023-07-16T14:04:29;15.65;;;7.30;;
62796;SDS011;48839;48.546;-4.178;2023-07-16T14:06:55;11.38;;;5.50;;
62796;SDS011;48839;48.546;-4.178;2023-07-16T14:09:21;13.57;;;6.15;;
62796;SDS011;48839;48.546;-4.178;2023-07-16T14:11:47;12.57;;;6.22;;
62796;SDS011;48839;48.546;-4.178;2023-07-16T14:14:14;11.05;;;6.28;;
62796;SDS011;48839;48.546;-4.178;2023-07-16T14:16:40;14.95;;;6.55;;
62796;SDS011;48839;48.546;-4.178;2023-07-16T14:19:06;15.10;;;5.95;;
62796;SDS011;48839;48.546;-4.178;2023-07-16T14:21:32;15.60;;;6.47;;
62796;SDS011;48839;48.546;-4.178;2023-07-16T14:23:58;13.65;;;6.75;;
62796;SDS011;48839;48.546;-4.178;2023-07-16T14:26:24;12.68;;;6.03;;
62796;SDS011;48839;48.546;-4.178;2023-07-16T14:28:50;17.38;;;6.45;;
62796;SDS011;48839;48.546;-4.178;2023-07-16T14:31:16;13.90;;;6.97;;